sensor_id;sensor_type;location;lat;lon;timestamp;P1;durP1;ratioP1;P2;durP2;ratioP2
62106;SDS011;48087;32.600;-97.100;2022-09-30T00:10:57;15;;;14;;
62106;SDS011;48087;32.600;-97.100;2022-09-30T00:33:17;15;;;14;;
62106;SDS011;48087;32.600;-97.100;2022-09-30T00:55:47;14;;;13;;
62106;SDS011;48087;32.600;-97.100;2022-09-30T01:18:15;13;;;12;;
62106;SDS011;48087;32.600;-97.100;2022-09-30T01:40:39;12;;;11;;
62106;SDS011;48087;32.600;-97.100;2022-09-30T02:03:07;12;;;11;;
62106;SDS011;48087;32.600;-97.100;2022-09-30T02:25:33;10;;;10;;
62106;SDS011;48087;32.600;-97.100;2022-09-30T02:48:03;11;;;10;;
62106;SDS011;48087;32.600;-97.100;2022-09-30T03:10:25;12;;;11;;
62106;SDS011;48087;32.600;-97.100;2022-09-30T03:32:56;11;;;10;;
62106;SDS011;48087;32.600;-97.100;2022-09-30T03:55:17;11;;;10;;
62106;SDS011;48087;32.600;-97.100;2022-09-30T04:17:42;11;;;10;;
62106;SDS011;48087;32.600;-97.100;2022-09-30T04:40:08;9;;;9;;
62106;SDS011;48087;32.600;-97.100;2022-09-30T05:03:38;8;;;8;;
62106;SDS011;48087;32.600;-97.100;2022-09-30T05:27:08;8;;;8;;
62106;SDS011;48087;32.600;-97.100;2022-09-30T05:49:33;10;;;10;;
62106;SDS011;48087;32.600;-97.100;2022-09-30T06:11:57;12;;;11;;
62106;SDS011;48087;32.600;-97.100;2022-09-30T06:34:22;20;;;15;;
62106;SDS011;48087;32.600;-97.100;2022-09-30T06:56:47;20;;;15;;
62106;SDS011;48087;32.600;-97.100;2022-09-30T07:19:11;21;;;15;;
62106;SDS011;48087;32.600;-97.100;2022-09-30T07:41:30;29;;;22;;
62106;SDS011;48087;32.600;-97.100;2022-09-30T08:03:55;27;;;21;;
62106;SDS011;48087;32.600;-97.100;2022-09-30T08:26:18;25;;;19;;
62106;SDS011;48087;32.600;-97.100;2022-09-30T08:48:45;24;;;18;;
62106;SDS011;48087;32.600;-97.100;2022-09-30T09:11:02;23;;;18;;
62106;SDS011;48087;32.600;-97.100;2022-09-30T09:33:26;22;;;17;;
62106;SDS011;48087;32.600;-97.100;2022-09-30T09:55:44;22;;;17;;
62106;SDS011;48087;32.600;-97.100;2022-09-30T09:56:53;22;;;17;;
62106;SDS011;48087;32.600;-97.100;2022-09-30T10:19:17;25;;;19;;
62106;SDS011;48087;32.600;-97.100;2022-09-30T10:42:39;24;;;19;;
62106;SDS011;48087;32.600;-97.100;2022-09-30T11:05:04;23;;;18;;
62106;SDS011;48087;32.600;-97.100;2022-09-30T11:27:27;25;;;19;;
62106;SDS011;48087;32.600;-97.100;2022-09-30T11:49:47;22;;;17;;
62106;SDS011;48087;32.600;-97.100;2022-09-30T12:12:01;23;;;18;;
62106;SDS011;48087;32.600;-97.100;2022-09-30T12:34:22;22;;;17;;
62106;SDS011;48087;32.600;-97.100;2022-09-30T12:35:33;22;;;17;;
62106;SDS011;48087;32.600;-97.100;2022-09-30T12:57:45;22;;;17;;
62106;SDS011;48087;32.600;-97.100;2022-09-30T13:20:47;22;;;17;;
62106;SDS011;48087;32.600;-97.100;2022-09-30T13:42:21;24;;;18;;
62106;SDS011;48087;32.600;-97.100;2022-09-30T13:43:31;24;;;17;;
62106;SDS011;48087;32.600;-97.100;2022-09-30T14:05:55;25;;;19;;
62106;SDS011;48087;32.600;-97.100;2022-09-30T14:29:24;23;;;17;;
62106;SDS011;48087;32.600;-97.100;2022-09-30T14:51:50;23;;;17;;
62106;SDS011;48087;32.600;-97.100;2022-09-30T15:15:25;23;;;17;;
62106;SDS011;48087;32.600;-97.100;2022-09-30T15:37:53;25;;;17;;
62106;SDS011;48087;32.600;-97.100;2022-09-30T16:01:33;22;;;15;;
62106;SDS011;48087;32.600;-97.100;2022-09-30T16:25:10;15;;;14;;
62106;SDS011;48087;32.600;-97.100;2022-09-30T16:47:37;13;;;12;;
62106;SDS011;48087;32.600;-97.100;2022-09-30T17:10:05;11;;;10;;
62106;SDS011;48087;32.600;-97.100;2022-09-30T17:33:42;11;;;10;;
62106;SDS011;48087;32.600;-97.100;2022-09-30T17:56:13;14;;;13;;
62106;SDS011;48087;32.600;-97.100;2022-09-30T18:18:47;13;;;12;;
62106;SDS011;48087;32.600;-97.100;2022-09-30T18:41:17;10;;;9;;
62106;SDS011;48087;32.600;-97.100;2022-09-30T19:03:46;11;;;10;;
62106;SDS011;48087;32.600;-97.100;2022-09-30T19:26:16;11;;;10;;
62106;SDS011;48087;32.600;-97.100;2022-09-30T19:27:25;10;;;9;;
62106;SDS011;48087;32.600;-97.100;2022-09-30T19:49:58;11;;;10;;
62106;SDS011;48087;32.600;-97.100;2022-09-30T20:12:31;11;;;10;;
62106;SDS011;48087;32.600;-97.100;2022-09-30T20:35:05;12;;;11;;
62106;SDS011;48087;32.600;-97.100;2022-09-30T20:57:37;13;;;12;;
62106;SDS011;48087;32.600;-97.100;2022-09-30T21:20:10;14;;;13;;
62106;SDS011;48087;32.600;-97.100;2022-09-30T21:42:42;13;;;12;;
62106;SDS011;48087;32.600;-97.100;2022-09-30T22:05:13;14;;;13;;
62106;SDS011;48087;32.600;-97.100;2022-09-30T22:27:44;14;;;13;;
62106;SDS011;48087;32.600;-97.100;2022-09-30T22:51:19;12;;;11;;
62106;SDS011;48087;32.600;-97.100;2022-09-30T23:13:49;12;;;11;;
62106;SDS011;48087;32.600;-97.100;2022-09-30T23:37:22;12;;;11;;
62106;SDS011;48087;32.600;-97.100;2022-09-30T23:59:51;13;;;12;;
